sensor_id;sensor_type;location;lat;lon;timestamp;P1;durP1;ratioP1;P2;durP2;ratioP2
27684;SDS011;46113;50.130;8.526;2022-12-28T05:17:14;12.18;;;5.78;;
27684;SDS011;46113;50.130;8.526;2022-12-28T05:19:41;9.70;;;4.32;;
27684;SDS011;46113;50.130;8.526;2022-12-28T05:22:07;9.55;;;4.68;;
27684;SDS011;46113;50.130;8.526;2022-12-28T05:24:37;8.13;;;4.55;;
27684;SDS011;46113;50.130;8.526;2022-12-28T05:27:04;5.97;;;4.32;;
27684;SDS011;46113;50.130;8.526;2022-12-28T05:29:31;10.13;;;4.93;;
27684;SDS011;46113;50.130;8.526;2022-12-28T05:31:57;11.70;;;4.63;;
27684;SDS011;46113;50.130;8.526;2022-12-28T05:34:24;8.80;;;4.65;;
27684;SDS011;46113;50.130;8.526;2022-12-28T05:36:51;6.03;;;3.97;;
27684;SDS011;46113;50.130;8.526;2022-12-28T05:39:18;7.32;;;5.32;;
27684;SDS011;46113;50.130;8.526;2022-12-28T05:41:44;12.52;;;4.45;;
27684;SDS011;46113;50.130;8.526;2022-12-28T05:44:11;6.63;;;4.70;;
27684;SDS011;46113;50.130;8.526;2022-12-28T05:46:37;9.18;;;4.93;;
27684;SDS011;46113;50.130;8.526;2022-12-28T05:49:06;9.55;;;5.00;;
27684;SDS011;46113;50.130;8.526;2022-12-28T05:51:34;9.32;;;4.45;;
27684;SDS011;46113;50.130;8.526;2022-12-28T05:54:01;11.82;;;4.43;;
27684;SDS011;46113;50.130;8.526;2022-12-28T05:56:31;9.85;;;4.63;;
27684;SDS011;46113;50.130;8.526;2022-12-28T05:58:59;8.18;;;5.10;;
27684;SDS011;46113;50.130;8.526;2022-12-28T06:01:28;10.40;;;5.45;;
27684;SDS011;46113;50.130;8.526;2022-12-28T06:04:00;9.95;;;5.30;;
27684;SDS011;46113;50.130;8.526;2022-12-28T06:06:29;6.03;;;4.45;;
27684;SDS011;46113;50.130;8.526;2022-12-28T06:08:56;8.52;;;5.03;;
27684;SDS011;46113;50.130;8.526;2022-12-28T06:11:24;9.68;;;5.35;;
27684;SDS011;46113;50.130;8.526;2022-12-28T06:13:52;8.18;;;5.20;;
27684;SDS011;46113;50.130;8.526;2022-12-28T06:16:20;7.72;;;4.18;;
27684;SDS011;46113;50.130;8.526;2022-12-28T06:18:51;9.55;;;5.07;;
27684;SDS011;46113;50.130;8.526;2022-12-28T06:21:19;11.45;;;5.00;;
27684;SDS011;46113;50.130;8.526;2022-12-28T06:23:45;9.60;;;4.28;;
27684;SDS011;46113;50.130;8.526;2022-12-28T06:26:14;8.55;;;5.32;;
27684;SDS011;46113;50.130;8.526;2022-12-28T06:28:42;10.48;;;4.70;;
27684;SDS011;46113;50.130;8.526;2022-12-28T06:31:10;8.43;;;4.57;;
27684;SDS011;46113;50.130;8.526;2022-12-28T06:33:47;9.68;;;4.65;;
27684;SDS011;46113;50.130;8.526;2022-12-28T06:36:16;5.38;;;3.90;;
27684;SDS011;46113;50.130;8.526;2022-12-28T06:38:46;5.00;;;3.60;;
27684;SDS011;46113;50.130;8.526;2022-12-28T06:41:14;5.80;;;3.90;;
27684;SDS011;46113;50.130;8.526;2022-12-28T06:43:42;7.53;;;4.05;;
27684;SDS011;46113;50.130;8.526;2022-12-28T06:46:10;14.00;;;4.57;;
27684;SDS011;46113;50.130;8.526;2022-12-28T06:48:38;7.45;;;4.72;;
27684;SDS011;46113;50.130;8.526;2022-12-28T06:51:06;7.07;;;4.75;;
27684;SDS011;46113;50.130;8.526;2022-12-28T06:53:36;9.88;;;3.20;;
27684;SDS011;46113;50.130;8.526;2022-12-28T06:56:04;9.27;;;4.78;;
27684;SDS011;46113;50.130;8.526;2022-12-28T06:58:33;4.88;;;3.45;;
27684;SDS011;46113;50.130;8.526;2022-12-28T07:01:07;6.70;;;3.83;;
27684;SDS011;46113;50.130;8.526;2022-12-28T07:03:41;6.00;;;4.03;;
27684;SDS011;46113;50.130;8.526;2022-12-28T07:06:09;7.97;;;3.55;;
27684;SDS011;46113;50.130;8.526;2022-12-28T07:08:36;5.07;;;3.60;;
27684;SDS011;46113;50.130;8.526;2022-12-28T07:13:31;6.38;;;3.25;;
27684;SDS011;46113;50.130;8.526;2022-12-28T07:16:05;6.00;;;3.50;;
27684;SDS011;46113;50.130;8.526;2022-12-28T07:18:37;6.82;;;3.47;;
27684;SDS011;46113;50.130;8.526;2022-12-28T07:21:05;5.32;;;3.63;;
27684;SDS011;46113;50.130;8.526;2022-12-28T07:23:39;6.25;;;3.30;;
27684;SDS011;46113;50.130;8.526;2022-12-28T07:26:06;7.38;;;4.30;;
27684;SDS011;46113;50.130;8.526;2022-12-28T07:28:36;5.18;;;3.28;;
27684;SDS011;46113;50.130;8.526;2022-12-28T07:31:04;5.18;;;3.33;;
27684;SDS011;46113;50.130;8.526;2022-12-28T07:33:32;6.03;;;3.00;;
27684;SDS011;46113;50.130;8.526;2022-12-28T07:36:00;3.88;;;2.22;;
27684;SDS011;46113;50.130;8.526;2022-12-28T07:38:27;7.68;;;3.65;;
27684;SDS011;46113;50.130;8.526;2022-12-28T07:41:04;4.13;;;2.80;;
27684;SDS011;46113;50.130;8.526;2022-12-28T07:43:33;5.93;;;2.72;;
27684;SDS011;46113;50.130;8.526;2022-12-28T07:46:02;6.55;;;2.75;;
27684;SDS011;46113;50.130;8.526;2022-12-28T07:48:33;6.28;;;2.75;;
27684;SDS011;46113;50.130;8.526;2022-12-28T07:51:14;2.80;;;2.55;;
27684;SDS011;46113;50.130;8.526;2022-12-28T07:53:46;7.57;;;2.58;;
27684;SDS011;46113;50.130;8.526;2022-12-28T07:56:16;5.45;;;2.75;;
27684;SDS011;46113;50.130;8.526;2022-12-28T07:58:47;3.92;;;2.72;;
27684;SDS011;46113;50.130;8.526;2022-12-28T08:01:14;3.72;;;2.08;;
27684;SDS011;46113;50.130;8.526;2022-12-28T08:03:43;5.82;;;3.00;;
27684;SDS011;46113;50.130;8.526;2022-12-28T08:06:16;6.20;;;2.58;;
27684;SDS011;46113;50.130;8.526;2022-12-28T08:08:47;5.15;;;2.67;;
27684;SDS011;46113;50.130;8.526;2022-12-28T08:11:16;5.53;;;2.83;;
27684;SDS011;46113;50.130;8.526;2022-12-28T08:13:45;3.58;;;2.70;;
27684;SDS011;46113;50.130;8.526;2022-12-28T08:16:13;5.30;;;2.47;;
27684;SDS011;46113;50.130;8.526;2022-12-28T08:18:41;6.65;;;2.53;;
27684;SDS011;46113;50.130;8.526;2022-12-28T08:21:12;8.48;;;3.47;;
27684;SDS011;46113;50.130;8.526;2022-12-28T08:23:41;6.20;;;2.55;;
27684;SDS011;46113;50.130;8.526;2022-12-28T08:26:09;7.15;;;2.78;;
27684;SDS011;46113;50.130;8.526;2022-12-28T08:28:39;3.03;;;1.98;;
27684;SDS011;46113;50.130;8.526;2022-12-28T08:31:07;8.52;;;3.60;;
27684;SDS011;46113;50.130;8.526;2022-12-28T08:33:37;15.60;;;3.05;;
27684;SDS011;46113;50.130;8.526;2022-12-28T08:36:04;8.45;;;2.47;;
27684;SDS011;46113;50.130;8.526;2022-12-28T08:38:31;4.75;;;2.83;;
27684;SDS011;46113;50.130;8.526;2022-12-28T08:40:59;3.33;;;2.30;;
27684;SDS011;46113;50.130;8.526;2022-12-28T08:43:27;5.30;;;2.78;;
27684;SDS011;46113;50.130;8.526;2022-12-28T08:45:58;4.55;;;2.95;;
27684;SDS011;46113;50.130;8.526;2022-12-28T08:48:27;3.13;;;2.50;;
27684;SDS011;46113;50.130;8.526;2022-12-28T08:50:54;2.50;;;2.28;;
27684;SDS011;46113;50.130;8.526;2022-12-28T08:53:29;5.65;;;1.98;;
27684;SDS011;46113;50.130;8.526;2022-12-28T08:56:10;5.53;;;2.05;;
27684;SDS011;46113;50.130;8.526;2022-12-28T08:58:39;5.93;;;2.15;;
27684;SDS011;46113;50.130;8.526;2022-12-28T09:01:07;5.75;;;2.70;;
27684;SDS011;46113;50.130;8.526;2022-12-28T09:03:39;7.10;;;3.05;;
27684;SDS011;46113;50.130;8.526;2022-12-28T09:06:08;4.28;;;2.30;;
27684;SDS011;46113;50.130;8.526;2022-12-28T09:08:37;4.05;;;2.55;;
27684;SDS011;46113;50.130;8.526;2022-12-28T09:11:11;4.35;;;2.28;;
27684;SDS011;46113;50.130;8.526;2022-12-28T09:13:38;6.72;;;2.17;;
27684;SDS011;46113;50.130;8.526;2022-12-28T09:16:07;6.35;;;2.53;;
27684;SDS011;46113;50.130;8.526;2022-12-28T09:18:38;5.30;;;2.35;;
27684;SDS011;46113;50.130;8.526;2022-12-28T09:21:13;2.85;;;1.92;;
27684;SDS011;46113;50.130;8.526;2022-12-28T09:23:43;3.00;;;2.38;;
27684;SDS011;46113;50.130;8.526;2022-12-28T09:26:11;4.97;;;2.35;;
27684;SDS011;46113;50.130;8.526;2022-12-28T09:28:44;7.78;;;3.03;;
27684;SDS011;46113;50.130;8.526;2022-12-28T09:31:13;4.28;;;1.80;;
27684;SDS011;46113;50.130;8.526;2022-12-28T09:33:40;4.80;;;1.85;;
27684;SDS011;46113;50.130;8.526;2022-12-28T09:36:45;6.75;;;2.10;;
27684;SDS011;46113;50.130;8.526;2022-12-28T09:39:13;2.67;;;1.65;;
27684;SDS011;46113;50.130;8.526;2022-12-28T09:41:44;7.57;;;2.08;;
27684;SDS011;46113;50.130;8.526;2022-12-28T09:44:29;4.50;;;2.17;;
27684;SDS011;46113;50.130;8.526;2022-12-28T09:49:56;5.97;;;2.15;;
27684;SDS011;46113;50.130;8.526;2022-12-28T09:52:30;3.15;;;2.10;;
27684;SDS011;46113;50.130;8.526;2022-12-28T09:55:03;3.92;;;2.08;;
27684;SDS011;46113;50.130;8.526;2022-12-28T09:57:34;8.88;;;1.90;;
27684;SDS011;46113;50.130;8.526;2022-12-28T10:00:05;7.03;;;1.83;;
27684;SDS011;46113;50.130;8.526;2022-12-28T10:02:35;6.43;;;1.63;;
27684;SDS011;46113;50.130;8.526;2022-12-28T10:05:05;2.55;;;1.90;;
27684;SDS011;46113;50.130;8.526;2022-12-28T10:07:32;1.75;;;1.60;;
27684;SDS011;46113;50.130;8.526;2022-12-28T10:10:02;3.47;;;1.63;;
27684;SDS011;46113;50.130;8.526;2022-12-28T10:12:30;4.07;;;1.48;;
27684;SDS011;46113;50.130;8.526;2022-12-28T10:14:56;3.00;;;1.85;;
27684;SDS011;46113;50.130;8.526;2022-12-28T10:17:26;3.10;;;1.70;;
27684;SDS011;46113;50.130;8.526;2022-12-28T10:19:55;5.38;;;1.77;;
27684;SDS011;46113;50.130;8.526;2022-12-28T10:22:23;2.22;;;1.90;;
27684;SDS011;46113;50.130;8.526;2022-12-28T10:25:01;5.40;;;1.55;;
27684;SDS011;46113;50.130;8.526;2022-12-28T10:27:30;2.15;;;1.50;;
27684;SDS011;46113;50.130;8.526;2022-12-28T10:29:58;3.70;;;1.90;;
27684;SDS011;46113;50.130;8.526;2022-12-28T10:32:26;1.83;;;1.50;;
27684;SDS011;46113;50.130;8.526;2022-12-28T10:35:20;5.07;;;1.50;;
27684;SDS011;46113;50.130;8.526;2022-12-28T10:37:53;3.13;;;1.60;;
27684;SDS011;46113;50.130;8.526;2022-12-28T10:40:29;4.47;;;1.40;;
27684;SDS011;46113;50.130;8.526;2022-12-28T10:42:57;10.82;;;1.65;;
27684;SDS011;46113;50.130;8.526;2022-12-28T10:45:34;2.05;;;1.42;;
27684;SDS011;46113;50.130;8.526;2022-12-28T10:48:25;1.70;;;1.20;;
27684;SDS011;46113;50.130;8.526;2022-12-28T10:51:18;1.42;;;1.33;;
27684;SDS011;46113;50.130;8.526;2022-12-28T10:53:47;1.00;;;0.88;;
27684;SDS011;46113;50.130;8.526;2022-12-28T10:56:26;3.17;;;1.60;;
27684;SDS011;46113;50.130;8.526;2022-12-28T10:59:16;4.00;;;1.38;;
27684;SDS011;46113;50.130;8.526;2022-12-28T11:01:50;1.65;;;1.35;;
27684;SDS011;46113;50.130;8.526;2022-12-28T11:04:18;3.88;;;1.67;;
27684;SDS011;46113;50.130;8.526;2022-12-28T11:09:22;1.92;;;1.05;;
27684;SDS011;46113;50.130;8.526;2022-12-28T11:11:53;1.90;;;1.00;;
27684;SDS011;46113;50.130;8.526;2022-12-28T11:17:11;1.38;;;1.27;;
27684;SDS011;46113;50.130;8.526;2022-12-28T11:19:43;2.78;;;1.33;;
27684;SDS011;46113;50.130;8.526;2022-12-28T11:22:10;7.28;;;1.48;;
27684;SDS011;46113;50.130;8.526;2022-12-28T11:24:38;4.05;;;1.40;;
27684;SDS011;46113;50.130;8.526;2022-12-28T11:27:07;3.85;;;1.80;;
27684;SDS011;46113;50.130;8.526;2022-12-28T11:29:38;5.90;;;1.40;;
27684;SDS011;46113;50.130;8.526;2022-12-28T11:32:13;5.28;;;1.33;;
27684;SDS011;46113;50.130;8.526;2022-12-28T11:34:53;2.08;;;1.50;;
27684;SDS011;46113;50.130;8.526;2022-12-28T11:37:28;2.22;;;1.48;;
27684;SDS011;46113;50.130;8.526;2022-12-28T11:39:54;2.30;;;0.82;;
27684;SDS011;46113;50.130;8.526;2022-12-28T11:45:16;4.13;;;1.30;;
27684;SDS011;46113;50.130;8.526;2022-12-28T11:51:04;4.93;;;1.35;;
27684;SDS011;46113;50.130;8.526;2022-12-28T11:56:08;2.15;;;1.60;;
27684;SDS011;46113;50.130;8.526;2022-12-28T12:11:52;2.97;;;1.80;;
27684;SDS011;46113;50.130;8.526;2022-12-28T12:14:29;1.77;;;1.05;;
27684;SDS011;46113;50.130;8.526;2022-12-28T12:17:19;7.25;;;2.95;;
27684;SDS011;46113;50.130;8.526;2022-12-28T12:20:01;4.18;;;1.42;;
27684;SDS011;46113;50.130;8.526;2022-12-28T12:22:33;2.58;;;1.20;;
27684;SDS011;46113;50.130;8.526;2022-12-28T12:27:42;4.57;;;1.10;;
27684;SDS011;46113;50.130;8.526;2022-12-28T12:35:21;5.07;;;1.77;;
27684;SDS011;46113;50.130;8.526;2022-12-28T12:43:47;2.50;;;1.48;;
27684;SDS011;46113;50.130;8.526;2022-12-28T12:57:33;4.47;;;1.33;;
27684;SDS011;46113;50.130;8.526;2022-12-28T13:05:19;2.45;;;1.40;;
27684;SDS011;46113;50.130;8.526;2022-12-28T13:07:49;4.00;;;1.77;;
27684;SDS011;46113;50.130;8.526;2022-12-28T13:10:17;8.85;;;1.70;;
27684;SDS011;46113;50.130;8.526;2022-12-28T13:12:56;2.58;;;1.00;;
27684;SDS011;46113;50.130;8.526;2022-12-28T13:15:25;4.00;;;1.42;;
27684;SDS011;46113;50.130;8.526;2022-12-28T13:17:59;4.53;;;2.08;;
27684;SDS011;46113;50.130;8.526;2022-12-28T13:21:02;3.67;;;1.35;;
27684;SDS011;46113;50.130;8.526;2022-12-28T13:23:43;2.75;;;0.93;;
27684;SDS011;46113;50.130;8.526;2022-12-28T13:26:10;4.93;;;1.20;;
27684;SDS011;46113;50.130;8.526;2022-12-28T13:28:49;5.60;;;1.58;;
27684;SDS011;46113;50.130;8.526;2022-12-28T13:31:22;7.53;;;1.13;;
27684;SDS011;46113;50.130;8.526;2022-12-28T13:33:57;4.63;;;1.48;;
27684;SDS011;46113;50.130;8.526;2022-12-28T13:36:29;2.13;;;1.00;;
27684;SDS011;46113;50.130;8.526;2022-12-28T13:39:13;4.35;;;1.20;;
27684;SDS011;46113;50.130;8.526;2022-12-28T13:41:50;2.08;;;1.38;;
27684;SDS011;46113;50.130;8.526;2022-12-28T13:44:26;2.25;;;1.10;;
27684;SDS011;46113;50.130;8.526;2022-12-28T13:50:09;3.55;;;1.65;;
27684;SDS011;46113;50.130;8.526;2022-12-28T13:55:21;2.78;;;1.40;;
27684;SDS011;46113;50.130;8.526;2022-12-28T13:57:54;1.95;;;0.75;;
27684;SDS011;46113;50.130;8.526;2022-12-28T14:00:25;1.88;;;1.40;;
27684;SDS011;46113;50.130;8.526;2022-12-28T14:02:54;2.92;;;0.90;;
27684;SDS011;46113;50.130;8.526;2022-12-28T14:05:24;2.20;;;1.13;;
27684;SDS011;46113;50.130;8.526;2022-12-28T14:07:55;3.47;;;1.30;;
27684;SDS011;46113;50.130;8.526;2022-12-28T14:10:23;3.55;;;1.60;;
27684;SDS011;46113;50.130;8.526;2022-12-28T14:12:51;1.48;;;1.38;;
27684;SDS011;46113;50.130;8.526;2022-12-28T14:15:20;0.80;;;0.80;;
27684;SDS011;46113;50.130;8.526;2022-12-28T14:17:48;3.15;;;1.30;;
27684;SDS011;46113;50.130;8.526;2022-12-28T14:20:17;2.13;;;1.27;;
27684;SDS011;46113;50.130;8.526;2022-12-28T14:22:44;3.25;;;1.10;;
27684;SDS011;46113;50.130;8.526;2022-12-28T14:25:12;1.83;;;0.80;;
27684;SDS011;46113;50.130;8.526;2022-12-28T14:27:59;5.55;;;0.93;;
27684;SDS011;46113;50.130;8.526;2022-12-28T14:30:33;1.17;;;0.82;;
27684;SDS011;46113;50.130;8.526;2022-12-28T14:33:10;3.97;;;1.30;;
27684;SDS011;46113;50.130;8.526;2022-12-28T14:35:54;3.30;;;1.08;;
27684;SDS011;46113;50.130;8.526;2022-12-28T14:40:54;3.00;;;0.90;;
27684;SDS011;46113;50.130;8.526;2022-12-28T14:43:24;2.20;;;1.27;;
27684;SDS011;46113;50.130;8.526;2022-12-28T14:45:57;1.13;;;0.77;;
27684;SDS011;46113;50.130;8.526;2022-12-28T14:48:42;3.60;;;0.90;;
27684;SDS011;46113;50.130;8.526;2022-12-28T14:53:40;1.42;;;0.95;;
27684;SDS011;46113;50.130;8.526;2022-12-28T14:56:08;1.40;;;0.77;;
27684;SDS011;46113;50.130;8.526;2022-12-28T14:58:47;1.70;;;0.70;;
27684;SDS011;46113;50.130;8.526;2022-12-28T15:01:18;3.05;;;1.20;;
27684;SDS011;46113;50.130;8.526;2022-12-28T15:03:47;1.73;;;1.10;;
27684;SDS011;46113;50.130;8.526;2022-12-28T15:06:16;1.80;;;1.10;;
27684;SDS011;46113;50.130;8.526;2022-12-28T15:08:48;2.22;;;1.10;;
27684;SDS011;46113;50.130;8.526;2022-12-28T15:11:16;1.23;;;0.95;;
27684;SDS011;46113;50.130;8.526;2022-12-28T15:13:44;3.80;;;1.00;;
27684;SDS011;46113;50.130;8.526;2022-12-28T15:16:11;3.53;;;0.90;;
27684;SDS011;46113;50.130;8.526;2022-12-28T15:18:39;4.72;;;1.30;;
27684;SDS011;46113;50.130;8.526;2022-12-28T15:21:11;1.50;;;0.90;;
27684;SDS011;46113;50.130;8.526;2022-12-28T15:23:38;1.60;;;0.90;;
27684;SDS011;46113;50.130;8.526;2022-12-28T15:26:09;1.77;;;0.93;;
27684;SDS011;46113;50.130;8.526;2022-12-28T15:28:36;6.35;;;1.30;;
27684;SDS011;46113;50.130;8.526;2022-12-28T15:31:14;1.38;;;0.60;;
27684;SDS011;46113;50.130;8.526;2022-12-28T15:33:43;1.17;;;0.70;;
27684;SDS011;46113;50.130;8.526;2022-12-28T15:36:12;2.28;;;0.57;;
27684;SDS011;46113;50.130;8.526;2022-12-28T15:38:43;5.15;;;0.85;;
27684;SDS011;46113;50.130;8.526;2022-12-28T15:41:11;6.63;;;1.10;;
27684;SDS011;46113;50.130;8.526;2022-12-28T15:44:07;1.77;;;0.82;;
27684;SDS011;46113;50.130;8.526;2022-12-28T15:46:33;1.35;;;0.77;;
27684;SDS011;46113;50.130;8.526;2022-12-28T15:49:00;1.33;;;0.73;;
27684;SDS011;46113;50.130;8.526;2022-12-28T15:51:27;1.75;;;0.90;;
27684;SDS011;46113;50.130;8.526;2022-12-28T15:53:54;3.97;;;1.13;;
27684;SDS011;46113;50.130;8.526;2022-12-28T15:58:51;2.03;;;0.88;;
27684;SDS011;46113;50.130;8.526;2022-12-28T16:01:18;1.75;;;0.80;;
27684;SDS011;46113;50.130;8.526;2022-12-28T16:03:52;2.15;;;0.98;;
27684;SDS011;46113;50.130;8.526;2022-12-28T16:06:20;1.02;;;0.63;;
27684;SDS011;46113;50.130;8.526;2022-12-28T16:08:51;4.53;;;1.00;;
27684;SDS011;46113;50.130;8.526;2022-12-28T16:11:18;1.65;;;0.77;;
27684;SDS011;46113;50.130;8.526;2022-12-28T16:13:49;1.40;;;0.75;;
27684;SDS011;46113;50.130;8.526;2022-12-28T16:16:20;2.47;;;1.00;;
27684;SDS011;46113;50.130;8.526;2022-12-28T16:18:48;1.65;;;0.75;;
27684;SDS011;46113;50.130;8.526;2022-12-28T16:21:15;3.40;;;0.88;;
27684;SDS011;46113;50.130;8.526;2022-12-28T16:23:42;1.73;;;0.73;;
27684;SDS011;46113;50.130;8.526;2022-12-28T16:26:11;2.83;;;0.70;;
27684;SDS011;46113;50.130;8.526;2022-12-28T16:28:38;3.05;;;0.73;;
27684;SDS011;46113;50.130;8.526;2022-12-28T16:31:05;1.35;;;0.77;;
27684;SDS011;46113;50.130;8.526;2022-12-28T16:33:32;2.47;;;0.73;;
27684;SDS011;46113;50.130;8.526;2022-12-28T16:35:59;0.80;;;0.60;;
27684;SDS011;46113;50.130;8.526;2022-12-28T16:38:26;1.10;;;0.80;;
27684;SDS011;46113;50.130;8.526;2022-12-28T16:40:54;2.95;;;0.73;;
27684;SDS011;46113;50.130;8.526;2022-12-28T16:43:22;2.42;;;0.93;;
27684;SDS011;46113;50.130;8.526;2022-12-28T16:45:49;0.98;;;0.60;;
27684;SDS011;46113;50.130;8.526;2022-12-28T16:48:16;0.98;;;0.77;;
27684;SDS011;46113;50.130;8.526;2022-12-28T16:50:43;1.90;;;0.82;;
27684;SDS011;46113;50.130;8.526;2022-12-28T16:53:10;3.50;;;0.90;;
27684;SDS011;46113;50.130;8.526;2022-12-28T16:55:40;0.82;;;0.80;;
27684;SDS011;46113;50.130;8.526;2022-12-28T16:58:08;2.08;;;0.75;;
27684;SDS011;46113;50.130;8.526;2022-12-28T17:00:35;5.25;;;1.38;;
27684;SDS011;46113;50.130;8.526;2022-12-28T17:03:06;2.42;;;1.10;;
27684;SDS011;46113;50.130;8.526;2022-12-28T17:05:33;2.75;;;1.30;;
27684;SDS011;46113;50.130;8.526;2022-12-28T17:08:01;0.80;;;0.77;;
27684;SDS011;46113;50.130;8.526;2022-12-28T17:11:09;1.58;;;1.17;;
27684;SDS011;46113;50.130;8.526;2022-12-28T17:13:37;1.98;;;1.02;;
27684;SDS011;46113;50.130;8.526;2022-12-28T17:16:04;2.70;;;1.17;;
27684;SDS011;46113;50.130;8.526;2022-12-28T17:18:32;2.42;;;0.98;;
27684;SDS011;46113;50.130;8.526;2022-12-28T17:21:04;3.05;;;0.77;;
27684;SDS011;46113;50.130;8.526;2022-12-28T17:23:46;2.17;;;1.30;;
27684;SDS011;46113;50.130;8.526;2022-12-28T17:26:13;1.90;;;1.02;;
27684;SDS011;46113;50.130;8.526;2022-12-28T17:28:39;1.98;;;1.15;;
27684;SDS011;46113;50.130;8.526;2022-12-28T17:31:07;2.38;;;0.88;;
27684;SDS011;46113;50.130;8.526;2022-12-28T17:33:43;1.43;;;1.00;;
27684;SDS011;46113;50.130;8.526;2022-12-28T17:36:17;1.92;;;1.10;;
27684;SDS011;46113;50.130;8.526;2022-12-28T17:38:50;2.03;;;1.17;;
27684;SDS011;46113;50.130;8.526;2022-12-28T17:41:18;1.60;;;1.20;;
27684;SDS011;46113;50.130;8.526;2022-12-28T17:43:53;2.30;;;1.05;;
27684;SDS011;46113;50.130;8.526;2022-12-28T17:46:21;3.28;;;1.05;;
27684;SDS011;46113;50.130;8.526;2022-12-28T17:48:52;4.55;;;1.50;;
27684;SDS011;46113;50.130;8.526;2022-12-28T17:51:19;4.43;;;1.67;;
27684;SDS011;46113;50.130;8.526;2022-12-28T17:53:46;2.08;;;1.45;;
27684;SDS011;46113;50.130;8.526;2022-12-28T17:56:14;6.20;;;1.55;;
27684;SDS011;46113;50.130;8.526;2022-12-28T17:58:42;2.25;;;1.27;;
27684;SDS011;46113;50.130;8.526;2022-12-28T18:01:10;2.65;;;1.52;;
27684;SDS011;46113;50.130;8.526;2022-12-28T18:03:38;2.97;;;1.50;;
27684;SDS011;46113;50.130;8.526;2022-12-28T18:06:05;2.22;;;1.13;;
27684;SDS011;46113;50.130;8.526;2022-12-28T18:08:32;2.33;;;1.20;;
27684;SDS011;46113;50.130;8.526;2022-12-28T18:10:59;3.95;;;1.40;;
27684;SDS011;46113;50.130;8.526;2022-12-28T18:13:26;3.03;;;1.42;;
27684;SDS011;46113;50.130;8.526;2022-12-28T18:15:52;6.00;;;1.50;;
27684;SDS011;46113;50.130;8.526;2022-12-28T18:18:20;2.92;;;1.40;;
27684;SDS011;46113;50.130;8.526;2022-12-28T18:23:48;3.25;;;1.90;;
27684;SDS011;46113;50.130;8.526;2022-12-28T18:26:17;3.20;;;1.65;;
27684;SDS011;46113;50.130;8.526;2022-12-28T18:28:47;2.85;;;1.98;;
27684;SDS011;46113;50.130;8.526;2022-12-28T18:31:15;2.38;;;1.20;;
27684;SDS011;46113;50.130;8.526;2022-12-28T18:33:42;2.53;;;1.92;;
27684;SDS011;46113;50.130;8.526;2022-12-28T18:36:09;2.72;;;1.88;;
27684;SDS011;46113;50.130;8.526;2022-12-28T18:38:42;4.78;;;1.90;;
27684;SDS011;46113;50.130;8.526;2022-12-28T18:41:10;3.25;;;2.45;;
27684;SDS011;46113;50.130;8.526;2022-12-28T18:43:38;2.35;;;1.67;;
27684;SDS011;46113;50.130;8.526;2022-12-28T18:46:06;18.02;;;10.32;;
27684;SDS011;46113;50.130;8.526;2022-12-28T18:48:35;5.00;;;3.70;;
27684;SDS011;46113;50.130;8.526;2022-12-28T18:51:04;23.77;;;11.38;;
27684;SDS011;46113;50.130;8.526;2022-12-28T18:53:33;6.30;;;3.38;;
27684;SDS011;46113;50.130;8.526;2022-12-28T18:56:05;7.15;;;4.03;;
27684;SDS011;46113;50.130;8.526;2022-12-28T18:58:34;3.67;;;2.47;;
27684;SDS011;46113;50.130;8.526;2022-12-28T19:01:03;6.22;;;3.65;;
27684;SDS011;46113;50.130;8.526;2022-12-28T19:03:32;7.75;;;3.53;;
27684;SDS011;46113;50.130;8.526;2022-12-28T19:06:03;5.75;;;3.63;;
27684;SDS011;46113;50.130;8.526;2022-12-28T19:08:36;6.60;;;3.08;;
27684;SDS011;46113;50.130;8.526;2022-12-28T19:11:04;5.93;;;2.15;;
27684;SDS011;46113;50.130;8.526;2022-12-28T19:13:32;6.15;;;2.67;;
27684;SDS011;46113;50.130;8.526;2022-12-28T19:16:04;6.70;;;3.30;;
27684;SDS011;46113;50.130;8.526;2022-12-28T19:18:33;3.47;;;2.13;;
27684;SDS011;46113;50.130;8.526;2022-12-28T19:23:57;2.45;;;1.92;;
27684;SDS011;46113;50.130;8.526;2022-12-28T19:26:28;4.88;;;2.65;;
27684;SDS011;46113;50.130;8.526;2022-12-28T19:28:56;5.10;;;2.03;;
27684;SDS011;46113;50.130;8.526;2022-12-28T19:31:26;3.17;;;1.50;;
27684;SDS011;46113;50.130;8.526;2022-12-28T19:33:53;2.15;;;1.50;;
27684;SDS011;46113;50.130;8.526;2022-12-28T19:36:20;4.20;;;1.75;;
27684;SDS011;46113;50.130;8.526;2022-12-28T19:38:46;4.07;;;1.67;;
27684;SDS011;46113;50.130;8.526;2022-12-28T19:41:14;4.88;;;1.88;;
27684;SDS011;46113;50.130;8.526;2022-12-28T19:43:42;4.07;;;1.63;;
27684;SDS011;46113;50.130;8.526;2022-12-28T19:46:21;2.92;;;1.30;;
27684;SDS011;46113;50.130;8.526;2022-12-28T19:48:57;2.85;;;1.63;;
27684;SDS011;46113;50.130;8.526;2022-12-28T19:51:24;3.42;;;1.10;;
27684;SDS011;46113;50.130;8.526;2022-12-28T19:53:57;2.10;;;1.35;;
27684;SDS011;46113;50.130;8.526;2022-12-28T19:56:24;4.47;;;1.88;;
27684;SDS011;46113;50.130;8.526;2022-12-28T19:58:51;4.97;;;2.08;;
27684;SDS011;46113;50.130;8.526;2022-12-28T20:01:27;2.17;;;1.25;;
27684;SDS011;46113;50.130;8.526;2022-12-28T20:03:54;3.13;;;1.67;;
27684;SDS011;46113;50.130;8.526;2022-12-28T20:06:22;3.58;;;1.27;;
27684;SDS011;46113;50.130;8.526;2022-12-28T20:08:53;7.65;;;2.03;;
27684;SDS011;46113;50.130;8.526;2022-12-28T20:11:22;4.85;;;1.45;;
27684;SDS011;46113;50.130;8.526;2022-12-28T20:13:49;3.13;;;1.75;;
27684;SDS011;46113;50.130;8.526;2022-12-28T20:16:17;3.05;;;1.48;;
27684;SDS011;46113;50.130;8.526;2022-12-28T20:18:45;2.25;;;1.55;;
27684;SDS011;46113;50.130;8.526;2022-12-28T20:21:16;4.30;;;1.77;;
27684;SDS011;46113;50.130;8.526;2022-12-28T20:23:46;2.70;;;2.00;;
27684;SDS011;46113;50.130;8.526;2022-12-28T20:26:14;3.25;;;1.77;;
27684;SDS011;46113;50.130;8.526;2022-12-28T20:28:41;1.98;;;1.50;;
27684;SDS011;46113;50.130;8.526;2022-12-28T20:31:09;3.60;;;1.70;;
27684;SDS011;46113;50.130;8.526;2022-12-28T20:33:41;1.90;;;1.30;;
27684;SDS011;46113;50.130;8.526;2022-12-28T20:39:25;4.50;;;1.63;;
27684;SDS011;46113;50.130;8.526;2022-12-28T20:41:52;2.40;;;1.60;;
27684;SDS011;46113;50.130;8.526;2022-12-28T20:44:37;2.70;;;1.67;;
27684;SDS011;46113;50.130;8.526;2022-12-28T20:47:04;5.40;;;1.75;;
27684;SDS011;46113;50.130;8.526;2022-12-28T20:49:30;2.22;;;1.63;;
27684;SDS011;46113;50.130;8.526;2022-12-28T20:51:57;2.17;;;1.58;;
27684;SDS011;46113;50.130;8.526;2022-12-28T20:54:24;1.83;;;1.42;;
27684;SDS011;46113;50.130;8.526;2022-12-28T20:56:50;3.60;;;1.77;;
27684;SDS011;46113;50.130;8.526;2022-12-28T20:59:21;2.97;;;1.75;;
27684;SDS011;46113;50.130;8.526;2022-12-28T21:01:50;1.77;;;1.20;;
27684;SDS011;46113;50.130;8.526;2022-12-28T21:04:17;3.20;;;1.60;;
27684;SDS011;46113;50.130;8.526;2022-12-28T21:06:43;1.80;;;1.42;;
27684;SDS011;46113;50.130;8.526;2022-12-28T21:09:11;4.97;;;2.03;;
27684;SDS011;46113;50.130;8.526;2022-12-28T21:11:37;2.38;;;1.60;;
27684;SDS011;46113;50.130;8.526;2022-12-28T21:14:04;3.40;;;1.70;;
27684;SDS011;46113;50.130;8.526;2022-12-28T21:16:32;2.03;;;1.45;;
27684;SDS011;46113;50.130;8.526;2022-12-28T21:18:59;2.08;;;1.27;;
27684;SDS011;46113;50.130;8.526;2022-12-28T21:21:25;1.92;;;1.52;;
27684;SDS011;46113;50.130;8.526;2022-12-28T21:24:00;2.17;;;1.55;;
27684;SDS011;46113;50.130;8.526;2022-12-28T21:29:20;6.05;;;1.55;;
27684;SDS011;46113;50.130;8.526;2022-12-28T21:31:51;3.25;;;1.55;;
27684;SDS011;46113;50.130;8.526;2022-12-28T21:34:21;3.72;;;1.52;;
27684;SDS011;46113;50.130;8.526;2022-12-28T21:40:03;2.42;;;1.98;;
27684;SDS011;46113;50.130;8.526;2022-12-28T21:42:35;1.73;;;1.20;;
27684;SDS011;46113;50.130;8.526;2022-12-28T21:45:02;3.10;;;1.60;;
27684;SDS011;46113;50.130;8.526;2022-12-28T21:47:29;1.58;;;1.48;;
27684;SDS011;46113;50.130;8.526;2022-12-28T21:49:56;2.85;;;1.20;;
27684;SDS011;46113;50.130;8.526;2022-12-28T21:52:23;4.75;;;1.50;;
27684;SDS011;46113;50.130;8.526;2022-12-28T21:54:50;2.35;;;2.10;;